createdAt,value
2019-04-07T04:00:56.340Z,7.06
2019-04-07T04:01:57.471Z,7.07
2019-04-07T04:02:56.814Z,7.10
2019-04-07T04:03:56.795Z,7.06
2019-04-07T04:04:57.655Z,7.11
2019-04-07T04:05:57.354Z,7.11
2019-04-07T04:06:57.424Z,6.95
2019-04-07T04:07:57.541Z,6.97
2019-04-07T04:08:58.535Z,6.97
2019-04-07T04:09:58.218Z,6.93
2019-04-07T04:10:58.136Z,7.00
2019-04-07T04:11:58.220Z,6.93
2019-04-07T04:12:58.637Z,6.89
2019-04-07T04:13:58.560Z,6.89
2019-04-07T04:14:59.848Z,6.84
2019-04-07T04:15:58.978Z,6.78
2019-04-07T04:16:59.073Z,6.85
2019-04-07T04:17:59.242Z,6.82
2019-04-07T04:19:00.019Z,6.93
2019-04-07T04:19:59.589Z,6.88
2019-04-07T04:20:59.757Z,6.81
2019-04-07T04:22:00.631Z,6.72
2019-04-07T04:23:00.100Z,6.70
2019-04-07T04:24:00.592Z,6.67
2019-04-07T04:25:00.963Z,6.69
2019-04-07T04:26:00.950Z,6.59
2019-04-07T04:27:01.014Z,6.64
2019-04-07T04:28:01.235Z,6.60
2019-04-07T04:29:02.481Z,6.59
2019-04-07T04:30:01.296Z,6.64
2019-04-07T04:31:01.475Z,6.59
2019-04-07T04:32:01.693Z,6.70
2019-04-07T04:33:02.197Z,6.67
2019-04-07T04:34:01.988Z,6.74
2019-04-07T04:35:03.201Z,6.79
2019-04-07T04:36:02.788Z,6.82
2019-04-07T04:37:02.510Z,6.67
2019-04-07T04:38:02.660Z,6.62
2019-04-07T04:39:02.831Z,6.60
2019-04-07T04:40:03.005Z,6.42
2019-04-07T04:41:03.177Z,6.49
2019-04-07T04:42:03.969Z,6.45
2019-04-07T04:43:03.523Z,6.52
2019-04-07T04:44:03.900Z,6.57
2019-04-07T04:45:04.250Z,6.54
2019-04-07T04:46:04.027Z,6.63
2019-04-07T04:47:04.811Z,6.57
2019-04-07T04:48:04.485Z,6.60
2019-04-07T04:49:04.542Z,6.60
2019-04-07T04:50:06.054Z,6.66
2019-04-07T04:51:05.342Z,6.67
2019-04-07T04:52:05.230Z,6.63
2019-04-07T04:53:06.100Z,6.72
2019-04-07T04:54:05.388Z,6.67
2019-04-07T04:55:05.558Z,6.70
2019-04-07T04:56:05.731Z,6.79
2019-04-07T04:57:08.008Z,6.72
2019-04-07T04:58:06.070Z,6.82
2019-04-07T04:59:07.314Z,6.70
2019-04-07T05:00:06.416Z,6.67
2019-04-07T05:01:06.586Z,6.66
2019-04-07T05:02:06.751Z,6.59
2019-04-07T05:03:07.189Z,6.57
2019-04-07T05:04:07.492Z,6.60
2019-04-07T05:05:09.269Z,6.62
2019-04-07T05:06:07.866Z,6.70
2019-04-07T05:07:07.608Z,6.70
2019-04-07T05:08:08.343Z,6.67
2019-04-07T05:09:07.950Z,6.64
2019-04-07T05:10:08.312Z,6.70
2019-04-07T05:11:09.083Z,6.66
2019-04-07T05:12:08.461Z,6.60
2019-04-07T05:13:09.641Z,6.48
2019-04-07T05:14:08.968Z,6.27
2019-04-07T05:15:09.647Z,6.20
2019-04-07T05:16:09.141Z,6.11
2019-04-07T05:17:09.989Z,6.20
2019-04-07T05:18:09.787Z,6.12
2019-04-07T05:19:09.793Z,6.22
2019-04-07T05:20:10.225Z,6.20
2019-04-07T05:21:10.531Z,6.26
2019-04-07T05:22:10.257Z,6.30
2019-04-07T05:23:10.338Z,6.31
2019-04-07T05:24:10.511Z,6.36
2019-04-07T05:25:10.696Z,6.36
2019-04-07T05:26:10.999Z,6.45
2019-04-07T05:27:11.364Z,6.48
2019-04-07T05:28:11.370Z,6.45
2019-04-07T05:29:11.364Z,6.46
2019-04-07T05:30:11.534Z,6.56
2019-04-07T05:31:12.292Z,6.52
2019-04-07T05:32:12.231Z,6.45
2019-04-07T05:33:12.118Z,6.48
2019-04-07T05:34:16.427Z,6.45
2019-04-07T05:35:13.121Z,6.48
2019-04-07T05:36:12.562Z,6.54
2019-04-07T05:37:12.899Z,6.62
2019-04-07T05:38:13.588Z,6.69
2019-04-07T05:39:13.079Z,6.67
2019-04-07T05:40:13.315Z,6.75
2019-04-07T05:41:14.130Z,6.79
2019-04-07T05:42:13.598Z,6.81
2019-04-07T05:43:13.768Z,6.81
2019-04-07T05:44:13.959Z,7.00
2019-04-07T05:45:14.112Z,7.07
2019-04-07T05:46:14.808Z,7.07
2019-04-07T05:47:15.503Z,7.05
2019-04-07T05:48:17.421Z,7.13
2019-04-07T05:49:16.216Z,7.23
2019-04-07T05:50:15.471Z,7.24
2019-04-07T05:51:15.135Z,7.18
2019-04-07T05:52:16.040Z,7.23
2019-04-07T05:53:15.897Z,7.17
2019-04-07T05:54:17.359Z,7.10
2019-04-07T05:55:15.818Z,7.17
2019-04-07T05:56:16.459Z,7.24
2019-04-07T05:57:16.163Z,7.24
2019-04-07T05:58:16.340Z,7.29
2019-04-07T05:59:16.508Z,7.29
2019-04-07T06:00:17.032Z,7.43
2019-04-07T06:01:21.757Z,7.40
2019-04-07T06:02:17.026Z,7.42
2019-04-07T06:03:17.676Z,7.39
2019-04-07T06:04:19.174Z,7.38
2019-04-07T06:05:18.582Z,7.25
2019-04-07T06:06:19.063Z,7.33
2019-04-07T06:07:17.882Z,7.29
2019-04-07T06:08:26.019Z,7.32
2019-04-07T06:09:20.442Z,7.38
2019-04-07T06:10:21.794Z,7.36
2019-04-07T06:11:18.574Z,7.42
2019-04-07T06:12:19.322Z,7.50
2019-04-07T06:13:19.097Z,7.51
2019-04-07T06:14:19.329Z,7.51
2019-04-07T06:15:21.970Z,7.56
2019-04-07T06:16:20.940Z,7.58
2019-04-07T06:17:19.597Z,7.75
2019-04-07T06:18:19.770Z,7.75
2019-04-07T06:19:20.370Z,7.82
2019-04-07T06:20:20.108Z,7.93
2019-04-07T06:21:20.303Z,7.94
2019-04-07T06:22:21.016Z,7.94
2019-04-07T06:23:23.403Z,8.06
2019-04-07T06:24:22.308Z,8.12
2019-04-07T06:25:21.035Z,8.18
2019-04-07T06:26:21.141Z,8.27
2019-04-07T06:27:21.744Z,8.33
2019-04-07T06:28:21.475Z,8.41
2019-04-07T06:29:24.688Z,8.41
2019-04-07T06:30:22.107Z,8.46
2019-04-07T06:31:24.476Z,8.45
2019-04-07T06:32:22.154Z,8.63
2019-04-07T06:33:22.327Z,8.64
2019-04-07T06:34:22.635Z,8.82
2019-04-07T06:35:23.433Z,8.85
2019-04-07T06:36:26.034Z,8.92
2019-04-07T06:37:26.839Z,9.02
2019-04-07T06:38:31.822Z,9.19
2019-04-07T06:39:24.089Z,9.31
2019-04-07T06:40:24.220Z,9.43
2019-04-07T06:41:24.281Z,9.39
2019-04-07T06:42:24.177Z,9.48
2019-04-07T06:43:24.749Z,9.58
2019-04-07T06:44:24.349Z,9.55
2019-04-07T06:45:24.513Z,9.66
2019-04-07T06:46:27.643Z,9.62
2019-04-07T06:47:24.967Z,9.76
2019-04-07T06:48:25.491Z,9.65
2019-04-07T06:49:27.847Z,9.79
2019-04-07T06:50:25.800Z,9.79
2019-04-07T06:51:29.291Z,9.92
2019-04-07T06:52:25.883Z,9.98
2019-04-07T06:53:25.927Z,10.02
2019-04-07T06:54:25.958Z,10.13
2019-04-07T06:55:27.987Z,10.30
2019-04-07T06:56:26.278Z,10.33
2019-04-07T06:57:26.605Z,10.37
2019-04-07T06:58:26.660Z,10.44
2019-04-07T06:59:27.276Z,10.46
2019-04-07T07:00:26.967Z,10.63
2019-04-07T07:01:27.460Z,10.67
2019-04-07T07:02:29.488Z,10.75
2019-04-07T07:03:28.207Z,10.74
2019-04-07T07:04:27.692Z,10.87
2019-04-07T07:05:27.934Z,11.11
2019-04-07T07:06:28.551Z,11.23
2019-04-07T07:07:28.193Z,11.32
2019-04-07T07:08:28.404Z,11.44
2019-04-07T07:09:28.885Z,11.51
2019-04-07T07:10:30.344Z,11.62
2019-04-07T07:11:31.076Z,11.69
2019-04-07T07:12:35.123Z,11.83
2019-04-07T07:13:33.319Z,11.97
2019-04-07T07:14:34.784Z,12.03
2019-04-07T07:15:33.108Z,12.15
2019-04-07T07:16:29.950Z,12.13
2019-04-07T07:17:29.902Z,12.27
2019-04-07T07:18:30.629Z,12.37
2019-04-07T07:19:30.245Z,12.46
2019-04-07T07:20:31.200Z,12.50
2019-04-07T07:21:34.038Z,12.70
2019-04-07T07:22:31.145Z,12.67
2019-04-07T07:23:31.114Z,12.97
2019-04-07T07:24:31.103Z,13.09
2019-04-07T07:25:33.068Z,13.41
2019-04-07T07:26:34.578Z,13.68
2019-04-07T07:27:31.768Z,13.95
2019-04-07T07:28:31.793Z,14.10
2019-04-07T07:29:32.115Z,14.37
2019-04-07T07:30:32.445Z,14.53
2019-04-07T07:31:32.310Z,14.85
2019-04-07T07:32:35.020Z,15.22
2019-04-07T07:33:33.388Z,15.59
2019-04-07T07:34:32.829Z,15.97
2019-04-07T07:35:33.444Z,16.33
2019-04-07T07:36:33.802Z,16.79
2019-04-07T07:37:33.402Z,16.96
2019-04-07T07:38:34.338Z,16.84
2019-04-07T07:39:34.091Z,16.96
2019-04-07T07:40:35.048Z,17.27
2019-04-07T07:41:34.501Z,17.33
2019-04-07T07:42:34.237Z,17.60
2019-04-07T07:43:34.386Z,17.60
2019-04-07T07:44:38.172Z,17.92
2019-04-07T07:45:34.729Z,18.25
2019-04-07T07:46:34.903Z,18.43
2019-04-07T07:47:35.077Z,18.56
2019-04-07T07:48:35.661Z,18.58
2019-04-07T07:49:39.912Z,18.58
2019-04-07T07:50:38.066Z,18.88
2019-04-07T07:51:38.410Z,19.19
2019-04-07T07:52:35.950Z,19.37
2019-04-07T07:53:36.179Z,19.39
2019-04-07T07:54:36.789Z,19.34
2019-04-07T07:55:37.586Z,19.36
2019-04-07T07:56:36.727Z,19.55
2019-04-07T07:57:37.080Z,19.70
2019-04-07T07:58:36.988Z,19.64
2019-04-07T07:59:38.987Z,19.44
2019-04-07T08:00:40.379Z,19.73
2019-04-07T08:01:37.510Z,19.59
2019-04-07T08:02:37.681Z,19.54
2019-04-07T08:03:37.854Z,19.69
2019-04-07T08:04:38.687Z,19.85
2019-04-07T08:05:38.203Z,19.77
2019-04-07T08:06:40.756Z,19.95
2019-04-07T08:07:39.055Z,20.10
2019-04-07T08:08:39.596Z,20.26
2019-04-07T08:09:39.297Z,20.25
2019-04-07T08:10:39.721Z,20.32
2019-04-07T08:11:39.910Z,20.59
2019-04-07T08:12:40.046Z,20.78
2019-04-07T08:13:44.426Z,21.05
2019-04-07T08:14:40.381Z,21.05
2019-04-07T08:15:40.481Z,20.96
2019-04-07T08:16:40.113Z,20.95
2019-04-07T08:17:40.958Z,20.67
2019-04-07T08:18:43.584Z,20.70
2019-04-07T08:19:42.271Z,20.90
2019-04-07T08:20:44.192Z,21.03
2019-04-07T08:21:43.319Z,21.55
2019-04-07T08:22:43.673Z,21.29
2019-04-07T08:23:44.603Z,21.62
2019-04-07T08:24:41.583Z,21.52
2019-04-07T08:25:42.491Z,21.42
2019-04-07T08:26:41.900Z,21.24
2019-04-07T08:27:42.048Z,21.24
2019-04-07T08:28:42.708Z,21.52
2019-04-07T08:29:42.391Z,21.89
2019-04-07T08:30:45.684Z,22.26
2019-04-07T08:31:42.746Z,22.47
2019-04-07T08:32:43.247Z,22.13
2019-04-07T08:33:43.276Z,22.07
2019-04-07T08:34:43.783Z,22.10
2019-04-07T08:35:43.589Z,22.48
2019-04-07T08:36:45.349Z,22.38
2019-04-07T08:37:46.463Z,22.28
2019-04-07T08:38:43.974Z,21.93
2019-04-07T08:39:44.234Z,21.95
2019-04-07T08:40:44.542Z,22.23
2019-04-07T08:41:45.080Z,22.28
2019-04-07T08:42:48.304Z,22.48
2019-04-07T08:43:45.243Z,22.59
2019-04-07T08:44:45.172Z,23.06
2019-04-07T08:45:45.990Z,23.41
2019-04-07T08:46:45.448Z,23.61
2019-04-07T08:47:48.035Z,23.61
2019-04-07T08:48:49.687Z,23.50
2019-04-07T08:49:46.023Z,23.02
2019-04-07T08:50:46.383Z,22.72
2019-04-07T08:51:46.262Z,23.40
2019-04-07T08:52:46.676Z,23.24
2019-04-07T08:53:47.309Z,23.37
2019-04-07T08:54:50.328Z,23.03
2019-04-07T08:55:48.720Z,23.25
2019-04-07T08:56:48.033Z,23.68
2019-04-07T08:57:47.309Z,23.59
2019-04-07T08:58:47.821Z,23.61
2019-04-07T08:59:48.112Z,23.41
2019-04-07T09:00:50.971Z,23.21
2019-04-07T09:01:51.738Z,23.20
2019-04-07T09:03:01.081Z,22.73
2019-04-07T09:03:48.598Z,23.17
2019-04-07T09:04:51.919Z,23.37
2019-04-07T09:05:48.721Z,23.44
2019-04-07T09:06:48.909Z,23.06
2019-04-07T09:07:49.075Z,22.94
2019-04-07T09:08:49.798Z,23.03
2019-04-07T09:09:50.023Z,22.51
2019-04-07T09:10:50.837Z,22.72
2019-04-07T09:11:53.000Z,22.51
2019-04-07T09:12:49.985Z,22.63
2019-04-07T09:13:50.136Z,23.25
2019-04-07T09:14:50.313Z,23.54
2019-04-07T09:15:50.495Z,23.87
2019-04-07T09:16:54.247Z,23.71
2019-04-07T09:17:51.390Z,23.99
2019-04-07T09:18:55.011Z,24.33
2019-04-07T09:19:53.776Z,23.87
2019-04-07T09:20:51.854Z,24.20
2019-04-07T09:21:52.032Z,24.16
2019-04-07T09:22:54.579Z,24.45
2019-04-07T09:23:52.206Z,24.36
2019-04-07T09:24:52.131Z,24.16
2019-04-07T09:25:52.257Z,24.26
2019-04-07T09:26:52.483Z,24.55
2019-04-07T09:27:52.609Z,24.53
2019-04-07T09:28:55.421Z,24.39
2019-04-07T09:29:53.424Z,24.40
2019-04-07T09:30:53.664Z,24.23
2019-04-07T09:31:54.067Z,24.45
2019-04-07T09:32:53.497Z,24.76
2019-04-07T09:33:53.963Z,24.73
2019-04-07T09:34:55.310Z,24.69
2019-04-07T09:35:56.668Z,24.91
2019-04-07T09:36:54.437Z,24.77
2019-04-07T09:37:55.155Z,24.78
2019-04-07T09:38:57.876Z,24.84
2019-04-07T09:39:59.519Z,24.74
2019-04-07T09:40:54.923Z,24.58
2019-04-07T09:41:55.349Z,24.20
2019-04-07T09:42:58.738Z,24.03
2019-04-07T09:43:55.453Z,24.48
2019-04-07T09:44:56.280Z,24.80
2019-04-07T09:45:55.808Z,24.84
2019-04-07T09:46:55.985Z,24.76
2019-04-07T09:47:56.465Z,25.29
2019-04-07T09:48:56.341Z,25.51
2019-04-07T09:49:57.603Z,25.85
2019-04-07T09:51:02.562Z,25.77
2019-04-07T09:51:57.472Z,25.38
2019-04-07T09:52:57.056Z,25.07
2019-04-07T09:53:57.522Z,24.80
2019-04-07T09:54:57.439Z,24.43
2019-04-07T09:55:58.232Z,24.74
2019-04-07T09:56:57.771Z,25.08
2019-04-07T09:57:57.950Z,25.17
2019-04-07T09:58:58.131Z,25.32
2019-04-07T09:59:58.307Z,25.17
2019-04-07T10:00:58.529Z,24.80
2019-04-07T10:02:01.051Z,24.98
2019-04-07T10:02:58.841Z,25.26
2019-04-07T10:03:59.040Z,25.22
2019-04-07T10:04:59.248Z,25.80
2019-04-07T10:05:59.443Z,25.88
2019-04-07T10:06:59.605Z,25.83
2019-04-07T10:07:59.845Z,25.36
2019-04-07T10:09:00.071Z,25.21
2019-04-07T10:10:10.158Z,25.40
2019-04-07T10:11:00.663Z,25.51
2019-04-07T10:12:00.495Z,25.21
2019-04-07T10:13:00.715Z,25.33
2019-04-07T10:14:01.190Z,25.85
2019-04-07T10:15:02.001Z,26.22
2019-04-07T10:16:01.244Z,26.41
2019-04-07T10:17:01.419Z,26.44
2019-04-07T10:18:02.090Z,26.10
2019-04-07T10:19:01.903Z,25.96
2019-04-07T10:20:02.316Z,26.26
2019-04-07T10:21:02.142Z,26.05
2019-04-07T10:22:03.349Z,25.99
2019-04-07T10:23:03.014Z,26.33
2019-04-07T10:24:02.846Z,26.73
2019-04-07T10:25:02.866Z,26.96
2019-04-07T10:26:04.004Z,27.03
2019-04-07T10:27:03.216Z,27.14
2019-04-07T10:28:07.251Z,26.99
2019-04-07T10:29:04.432Z,27.39
2019-04-07T10:30:04.589Z,27.21
2019-04-07T10:31:04.721Z,27.15
2019-04-07T10:32:04.607Z,27.54
2019-04-07T10:33:04.319Z,27.71
2019-04-07T10:34:05.173Z,27.67
2019-04-07T10:35:04.661Z,27.51
2019-04-07T10:36:04.937Z,27.51
2019-04-07T10:37:05.092Z,27.52
2019-04-07T10:38:05.232Z,27.49
2019-04-07T10:39:06.108Z,27.74
2019-04-07T10:40:16.705Z,28.12
2019-04-07T10:41:06.697Z,27.54
2019-04-07T10:42:06.658Z,27.52
2019-04-07T10:43:06.132Z,27.11
2019-04-07T10:44:06.307Z,27.18
2019-04-07T10:45:07.251Z,26.95
2019-04-07T10:46:06.746Z,27.32
2019-04-07T10:47:07.173Z,27.70
2019-04-07T10:48:07.055Z,27.17
2019-04-07T10:49:07.198Z,27.07
2019-04-07T10:50:08.816Z,26.93
2019-04-07T10:51:07.910Z,27.51
2019-04-07T10:52:07.740Z,27.51
2019-04-07T10:53:08.229Z,26.40
2019-04-07T10:54:08.175Z,25.70
2019-04-07T10:55:08.594Z,25.83
2019-04-07T10:56:08.884Z,25.72
2019-04-07T10:57:08.657Z,25.32
2019-04-07T10:58:09.130Z,25.77
2019-04-07T10:59:09.325Z,25.99
2019-04-07T11:00:09.198Z,25.95
2019-04-07T11:01:09.943Z,25.99
2019-04-07T11:02:10.260Z,26.22
2019-04-07T11:03:09.759Z,26.22
2019-04-07T11:04:10.637Z,26.66
2019-04-07T11:05:10.128Z,27.25
2019-04-07T11:06:10.295Z,27.73
2019-04-07T11:07:10.592Z,28.02
2019-04-07T11:08:10.664Z,27.77
2019-04-07T11:09:11.204Z,27.80
2019-04-07T11:10:11.504Z,28.27
2019-04-07T11:11:11.187Z,28.38
2019-04-07T11:12:11.402Z,28.20
2019-04-07T11:13:12.714Z,27.75
2019-04-07T11:14:11.749Z,27.80
2019-04-07T11:15:12.517Z,27.75
2019-04-07T11:16:12.759Z,28.11
2019-04-07T11:17:12.530Z,28.20
2019-04-07T11:18:12.475Z,28.32
2019-04-07T11:19:12.966Z,28.66
2019-04-07T11:20:13.334Z,28.76
2019-04-07T11:21:13.099Z,28.33
2019-04-07T11:22:13.206Z,28.51
2019-04-07T11:23:13.389Z,28.25
2019-04-07T11:24:13.684Z,28.29
2019-04-07T11:25:14.869Z,28.97
2019-04-07T11:26:13.936Z,29.22
2019-04-07T11:27:14.768Z,29.50
2019-04-07T11:28:14.299Z,29.35
2019-04-07T11:29:14.515Z,28.60
2019-04-07T11:30:14.658Z,28.97
2019-04-07T11:31:15.659Z,29.07
2019-04-07T11:32:15.029Z,28.14
2019-04-07T11:33:16.227Z,28.08
2019-04-07T11:34:15.981Z,28.11
2019-04-07T11:35:15.570Z,28.59
2019-04-07T11:36:18.010Z,28.98
2019-04-07T11:37:15.939Z,28.79
2019-04-07T11:38:16.812Z,28.22
2019-04-07T11:39:16.302Z,27.40
2019-04-07T11:40:17.112Z,27.07
2019-04-07T11:41:17.015Z,27.02
2019-04-07T11:42:17.079Z,27.18
2019-04-07T11:43:17.028Z,27.55
2019-04-07T11:44:19.911Z,27.36
2019-04-07T11:45:17.395Z,27.22
2019-04-07T11:46:17.604Z,27.18
2019-04-07T11:47:18.350Z,27.14
2019-04-07T11:48:18.037Z,27.45
2019-04-07T11:49:18.267Z,27.65
2019-04-07T11:50:18.921Z,28.35
2019-04-07T11:51:18.550Z,28.78
2019-04-07T11:52:18.654Z,28.96
2019-04-07T11:53:18.863Z,28.39
2019-04-07T11:54:19.787Z,28.64
2019-04-07T11:55:19.216Z,27.83
2019-04-07T11:56:19.577Z,27.55
2019-04-07T11:57:20.356Z,27.55
2019-04-07T11:58:25.984Z,27.60
2019-04-07T11:59:20.441Z,26.90
2019-04-07T12:00:20.603Z,25.88
2019-04-07T12:01:20.319Z,25.62
2019-04-07T12:02:21.590Z,25.95
2019-04-07T12:03:24.690Z,26.25
2019-04-07T12:04:21.563Z,26.78
2019-04-07T12:05:21.220Z,27.12
2019-04-07T12:06:24.158Z,27.47
2019-04-07T12:07:22.035Z,27.48
2019-04-07T12:08:21.686Z,27.30
2019-04-07T12:09:22.276Z,27.75
2019-04-07T12:10:22.487Z,27.58
2019-04-07T12:11:22.236Z,27.96
2019-04-07T12:12:22.903Z,28.37
2019-04-07T12:13:22.514Z,28.42
2019-04-07T12:14:22.617Z,28.57
2019-04-07T12:15:25.784Z,29.10
2019-04-07T12:16:24.715Z,29.29
2019-04-07T12:17:23.426Z,29.53
2019-04-07T12:18:23.476Z,29.86
2019-04-07T12:19:24.888Z,29.61
2019-04-07T12:20:25.681Z,29.57
2019-04-07T12:21:25.503Z,29.88
2019-04-07T12:22:24.033Z,29.76
2019-04-07T12:23:25.675Z,30.03
2019-04-07T12:24:27.486Z,29.22
2019-04-07T12:25:24.565Z,29.27
2019-04-07T12:26:24.807Z,28.33
2019-04-07T12:27:24.915Z,27.75
2019-04-07T12:28:25.735Z,27.22
2019-04-07T12:29:25.503Z,26.09
2019-04-07T12:30:26.382Z,26.40
2019-04-07T12:31:26.036Z,26.97
2019-04-07T12:32:26.043Z,27.65
2019-04-07T12:33:26.575Z,27.87
2019-04-07T12:34:26.489Z,26.74
2019-04-07T12:35:26.359Z,26.22
2019-04-07T12:36:29.460Z,26.25
2019-04-07T12:37:27.355Z,25.83
2019-04-07T12:38:27.438Z,26.53
2019-04-07T12:39:27.095Z,26.89
2019-04-07T12:40:27.961Z,27.05
2019-04-07T12:41:30.707Z,26.90
2019-04-07T12:42:27.767Z,27.54
2019-04-07T12:43:27.835Z,27.85
2019-04-07T12:44:28.899Z,27.74
2019-04-07T12:45:28.513Z,27.87
2019-04-07T12:46:28.971Z,28.07
2019-04-07T12:47:28.539Z,28.64
2019-04-07T12:48:29.978Z,29.49
2019-04-07T12:49:29.795Z,29.16
2019-04-07T12:50:29.083Z,28.23
2019-04-07T12:51:29.266Z,27.47
2019-04-07T12:52:31.163Z,26.88
2019-04-07T12:53:32.162Z,26.48
2019-04-07T12:54:29.818Z,26.41
2019-04-07T12:55:30.433Z,26.00
2019-04-07T12:56:33.327Z,25.66
2019-04-07T12:57:30.792Z,25.47
2019-04-07T12:58:31.243Z,25.25
2019-04-07T12:59:30.961Z,26.10
2019-04-07T13:00:30.881Z,26.13
2019-04-07T13:01:31.690Z,26.19
2019-04-07T13:02:31.799Z,26.84
2019-04-07T13:03:31.445Z,27.00
2019-04-07T13:04:31.868Z,27.68
2019-04-07T13:05:34.611Z,27.78
2019-04-07T13:06:32.073Z,28.42
2019-04-07T13:07:32.526Z,28.93
2019-04-07T13:08:32.360Z,29.01
2019-04-07T13:09:33.348Z,29.60
2019-04-07T13:10:34.309Z,29.95
2019-04-07T13:11:37.323Z,30.48
2019-04-07T13:12:33.250Z,29.84
2019-04-07T13:13:34.141Z,28.76
2019-04-07T13:14:37.814Z,28.22
2019-04-07T13:15:33.840Z,26.75
2019-04-07T13:16:33.887Z,26.25
2019-04-07T13:17:36.758Z,26.16
2019-04-07T13:18:37.795Z,26.84
2019-04-07T13:19:35.237Z,26.22
2019-04-07T13:20:34.682Z,26.21
2019-04-07T13:21:34.759Z,26.44
2019-04-07T13:22:35.481Z,27.07
2019-04-07T13:23:36.932Z,27.51
2019-04-07T13:24:38.853Z,27.40
2019-04-07T13:25:36.342Z,27.10
2019-04-07T13:26:35.701Z,27.22
2019-04-07T13:27:38.854Z,27.20
2019-04-07T13:28:35.985Z,27.18
2019-04-07T13:29:37.728Z,27.73
2019-04-07T13:30:36.569Z,28.15
2019-04-07T13:31:36.515Z,28.11
2019-04-07T13:32:41.644Z,28.30
2019-04-07T13:33:37.180Z,27.77
2019-04-07T13:34:37.039Z,27.55
2019-04-07T13:35:37.159Z,28.22
2019-04-07T13:36:37.734Z,28.62
2019-04-07T13:37:38.365Z,29.01
2019-04-07T13:38:38.374Z,29.31
2019-04-07T13:39:41.508Z,28.00
2019-04-07T13:40:38.092Z,27.03
2019-04-07T13:41:44.493Z,26.21
2019-04-07T13:42:38.993Z,25.36
2019-04-07T13:43:38.619Z,24.66
2019-04-07T13:44:39.622Z,24.61
2019-04-07T13:45:39.036Z,25.28
2019-04-07T13:46:39.051Z,25.65
2019-04-07T13:47:42.574Z,26.45
2019-04-07T13:48:39.967Z,27.30
2019-04-07T13:49:39.638Z,27.83
2019-04-07T13:50:40.608Z,28.60
2019-04-07T13:51:40.843Z,28.93
2019-04-07T13:52:41.528Z,29.14
2019-04-07T13:53:41.009Z,29.47
2019-04-07T13:54:40.481Z,30.02
2019-04-07T13:55:42.643Z,30.50
2019-04-07T13:56:40.833Z,30.43
2019-04-07T13:57:40.960Z,30.57
2019-04-07T13:58:41.132Z,31.05
2019-04-07T13:59:44.067Z,30.75
2019-04-07T14:00:42.934Z,30.03
2019-04-07T14:01:41.664Z,30.28
2019-04-07T14:02:42.179Z,30.66
2019-04-07T14:03:42.016Z,30.59
2019-04-07T14:04:42.420Z,29.82
2019-04-07T14:05:43.059Z,29.87
2019-04-07T14:06:44.919Z,29.50
2019-04-07T14:07:42.819Z,29.02
2019-04-07T14:08:43.654Z,28.69
2019-04-07T14:09:43.120Z,28.72
2019-04-07T14:10:43.943Z,28.82
2019-04-07T14:11:57.331Z,29.01
2019-04-07T14:12:44.363Z,29.27
2019-04-07T14:13:44.651Z,29.29
2019-04-07T14:14:44.697Z,29.08
2019-04-07T14:15:44.289Z,28.96
2019-04-07T14:16:44.400Z,29.08
2019-04-07T14:17:45.045Z,29.29
2019-04-07T14:18:46.818Z,29.51
2019-04-07T14:19:44.933Z,30.06
2019-04-07T14:20:45.110Z,29.79
2019-04-07T14:21:45.263Z,29.97
2019-04-07T14:22:45.490Z,30.21
2019-04-07T14:23:45.634Z,30.31
2019-04-07T14:24:46.101Z,30.13
2019-04-07T14:25:47.491Z,29.60
2019-04-07T14:26:46.737Z,28.89
2019-04-07T14:27:46.314Z,29.38
2019-04-07T14:28:46.487Z,29.35
2019-04-07T14:29:47.120Z,29.53
2019-04-07T14:30:46.914Z,29.90
2019-04-07T14:31:47.021Z,30.09
2019-04-07T14:32:49.407Z,30.31
2019-04-07T14:33:48.068Z,30.08
2019-04-07T14:34:47.679Z,29.81
2019-04-07T14:35:47.833Z,29.91
2019-04-07T14:36:48.047Z,29.97
2019-04-07T14:37:48.408Z,29.63
2019-04-07T14:38:48.281Z,29.24
2019-04-07T14:39:48.825Z,29.61
2019-04-07T14:40:48.897Z,29.95
2019-04-07T14:41:48.808Z,30.24
2019-04-07T14:42:49.554Z,30.05
2019-04-07T14:43:49.708Z,29.26
2019-04-07T14:44:50.043Z,28.38
2019-04-07T14:45:50.398Z,27.71
2019-04-07T14:46:50.082Z,26.78
2019-04-07T14:47:49.941Z,26.33
2019-04-07T14:48:50.255Z,25.78
2019-04-07T14:49:51.889Z,25.31
2019-04-07T14:50:50.464Z,25.43
2019-04-07T14:51:51.284Z,25.70
2019-04-07T14:52:50.828Z,25.63
2019-04-07T14:53:51.021Z,25.06
2019-04-07T14:54:57.124Z,24.68
2019-04-07T14:55:52.104Z,24.65
2019-04-07T14:56:52.023Z,24.76
2019-04-07T14:57:52.453Z,24.55
2019-04-07T14:58:53.752Z,25.16
2019-04-07T14:59:54.154Z,24.86
2019-04-07T15:00:52.287Z,24.53
2019-04-07T15:01:52.471Z,24.16
2019-04-07T15:02:53.022Z,23.65
2019-04-07T15:03:52.830Z,23.17
2019-04-07T15:04:53.140Z,23.99
2019-04-07T15:05:56.397Z,24.84
2019-04-07T15:06:53.758Z,25.28
2019-04-07T15:07:55.886Z,25.65
2019-04-07T15:08:53.725Z,26.15
2019-04-07T15:09:54.595Z,26.48
2019-04-07T15:10:54.087Z,26.74
2019-04-07T15:11:54.266Z,26.21
2019-04-07T15:12:54.447Z,25.66
2019-04-07T15:13:57.263Z,25.69
2019-04-07T15:14:55.543Z,25.59
2019-04-07T15:15:54.986Z,25.60
2019-04-07T15:16:55.747Z,25.85
2019-04-07T15:17:55.349Z,25.85
2019-04-07T15:18:56.501Z,26.23
2019-04-07T15:19:56.051Z,26.25
2019-04-07T15:20:56.146Z,26.41
2019-04-07T15:21:56.068Z,26.68
2019-04-07T15:22:58.375Z,26.52
2019-04-07T15:23:57.253Z,26.97
2019-04-07T15:24:57.022Z,27.00
2019-04-07T15:25:56.856Z,26.92
2019-04-07T15:26:57.739Z,27.08
2019-04-07T15:27:59.377Z,27.30
2019-04-07T15:28:59.010Z,27.17
2019-04-07T15:29:57.795Z,27.25
2019-04-07T15:30:57.680Z,27.63
2019-04-07T15:31:58.567Z,27.55
2019-04-07T15:33:01.015Z,28.00
2019-04-07T15:34:00.516Z,27.29
2019-04-07T15:34:58.941Z,27.15
2019-04-07T15:35:58.934Z,26.59
2019-04-07T15:36:59.087Z,26.23
2019-04-07T15:37:59.192Z,25.73
2019-04-07T15:38:59.555Z,25.96
2019-04-07T15:40:02.683Z,26.07
2019-04-07T15:41:00.888Z,26.51
2019-04-07T15:41:59.673Z,26.38
2019-04-07T15:43:03.863Z,26.68
2019-04-07T15:44:00.462Z,26.88
2019-04-07T15:45:01.104Z,27.10
2019-04-07T15:46:01.204Z,26.58
2019-04-07T15:47:00.575Z,25.93
2019-04-07T15:48:00.948Z,25.95
2019-04-07T15:49:00.930Z,26.34
2019-04-07T15:50:01.112Z,25.87
2019-04-07T15:51:04.657Z,25.99
2019-04-07T15:52:01.735Z,25.66
2019-04-07T15:53:01.663Z,25.26
2019-04-07T15:54:02.679Z,25.41
2019-04-07T15:55:02.085Z,25.47
2019-04-07T15:56:06.327Z,25.54
2019-04-07T15:57:02.560Z,25.32
2019-04-07T15:58:03.080Z,25.44
2019-04-07T15:59:03.548Z,25.38
2019-04-07T16:00:05.018Z,25.60
2019-04-07T16:01:06.533Z,25.41
2019-04-07T16:02:03.271Z,25.21
2019-04-07T16:03:04.203Z,25.28
2019-04-07T16:04:05.745Z,25.10
2019-04-07T16:05:03.819Z,24.76
2019-04-07T16:06:04.609Z,24.77
2019-04-07T16:07:04.169Z,24.66
2019-04-07T16:08:04.351Z,24.51
2019-04-07T16:09:10.239Z,24.55
2019-04-07T16:10:04.711Z,24.13
2019-04-07T16:11:05.025Z,23.95
2019-04-07T16:12:06.410Z,23.63
2019-04-07T16:13:05.259Z,23.77
2019-04-07T16:14:12.490Z,23.24
2019-04-07T16:15:05.604Z,23.47
2019-04-07T16:16:05.872Z,23.21
2019-04-07T16:17:09.242Z,23.32
2019-04-07T16:18:07.638Z,23.34
2019-04-07T16:19:10.238Z,23.54
2019-04-07T16:20:06.932Z,23.15
2019-04-07T16:21:09.043Z,22.96
2019-04-07T16:22:11.214Z,23.02
2019-04-07T16:23:07.083Z,22.81
2019-04-07T16:24:07.351Z,22.78
2019-04-07T16:25:08.071Z,22.43
2019-04-07T16:26:07.728Z,22.53
2019-04-07T16:27:08.791Z,22.55
2019-04-07T16:28:11.354Z,22.53
2019-04-07T16:29:08.263Z,22.11
2019-04-07T16:30:08.591Z,22.07
2019-04-07T16:31:08.532Z,21.95
2019-04-07T16:32:09.316Z,21.64
2019-04-07T16:33:08.868Z,21.50
2019-04-07T16:34:10.314Z,21.35
2019-04-07T16:35:13.035Z,21.32
2019-04-07T16:36:09.350Z,21.17
2019-04-07T16:37:09.537Z,21.30
2019-04-07T16:38:09.709Z,21.30
2019-04-07T16:39:09.887Z,21.27
2019-04-07T16:40:11.437Z,21.30
2019-04-07T16:41:12.349Z,21.24
2019-04-07T16:42:10.775Z,21.06
2019-04-07T16:43:15.096Z,20.85
2019-04-07T16:44:11.786Z,20.75
2019-04-07T16:45:13.582Z,20.84
2019-04-07T16:46:13.654Z,20.56
2019-04-07T16:47:19.560Z,20.55
2019-04-07T16:48:11.488Z,20.58
2019-04-07T16:49:13.732Z,20.40
2019-04-07T16:50:12.215Z,20.41
2019-04-07T16:51:12.014Z,20.56
2019-04-07T16:52:12.422Z,20.48
2019-04-07T16:53:12.365Z,20.41
2019-04-07T16:54:13.221Z,20.58
2019-04-07T16:55:15.265Z,20.55
2019-04-07T16:56:13.343Z,20.51
2019-04-07T16:57:13.070Z,20.43
2019-04-07T16:58:14.269Z,20.55
2019-04-07T16:59:13.539Z,20.58
2019-04-07T17:00:14.387Z,20.62
2019-04-07T17:01:14.291Z,20.51